createdAt,value
2018-05-14T00:02:00.523Z,15.45
2018-05-14T00:04:27.988Z,15.45
2018-05-14T00:06:55.393Z,15.44
2018-05-14T00:09:22.809Z,15.45
2018-05-14T00:11:50.251Z,15.39
2018-05-14T00:14:17.659Z,15.40
2018-05-14T00:16:45.448Z,15.41
2018-05-14T00:19:12.852Z,15.41
2018-05-14T00:21:40.260Z,15.38
2018-05-14T00:24:07.684Z,15.36
2018-05-14T00:26:35.140Z,15.37
2018-05-14T00:29:02.581Z,15.38
2018-05-14T00:31:29.992Z,15.41
2018-05-14T00:33:57.409Z,15.43
2018-05-14T00:36:24.832Z,15.43
2018-05-14T00:38:52.237Z,15.45
2018-05-14T00:41:19.668Z,15.46
2018-05-14T00:43:47.076Z,15.46
2018-05-14T00:46:14.517Z,15.50
2018-05-14T00:48:41.932Z,15.48
2018-05-14T00:51:09.621Z,15.51
2018-05-14T00:53:37.037Z,15.55
2018-05-14T00:56:04.450Z,15.54
2018-05-14T00:58:31.879Z,15.56
2018-05-14T01:00:59.283Z,15.59
2018-05-14T01:03:26.715Z,15.59
2018-05-14T01:05:54.120Z,15.56
2018-05-14T01:08:21.545Z,15.56
2018-05-14T01:10:48.963Z,15.61
2018-05-14T01:13:16.369Z,15.63
2018-05-14T01:15:43.939Z,15.66
2018-05-14T01:18:11.348Z,15.69
2018-05-14T01:20:38.744Z,15.72
2018-05-14T01:23:06.168Z,15.74
2018-05-14T01:25:33.593Z,15.68
2018-05-14T01:28:01.088Z,15.68
2018-05-14T01:30:28.415Z,15.69
2018-05-14T01:32:55.850Z,15.71
2018-05-14T01:35:23.263Z,15.67
2018-05-14T01:37:50.692Z,15.66
2018-05-14T01:40:18.115Z,15.59
2018-05-14T01:42:45.552Z,15.54
2018-05-14T01:45:12.973Z,15.52
2018-05-14T01:47:40.408Z,15.41
2018-05-14T01:50:07.823Z,15.43
2018-05-14T01:52:35.540Z,15.48
2018-05-14T01:55:02.951Z,15.48
2018-05-14T01:57:30.356Z,15.49
2018-05-14T01:59:57.781Z,15.44
2018-05-14T02:02:25.210Z,15.46
2018-05-14T02:04:52.627Z,15.49
2018-05-14T02:07:20.032Z,15.55
2018-05-14T02:09:47.740Z,15.46
2018-05-14T02:12:15.152Z,15.44
2018-05-14T02:14:42.553Z,15.42
2018-05-14T02:17:09.976Z,15.49
2018-05-14T02:19:37.397Z,15.48
2018-05-14T02:22:04.806Z,15.50
2018-05-14T02:24:32.275Z,15.51
2018-05-14T02:26:59.652Z,15.55
2018-05-14T02:29:27.187Z,15.56
2018-05-14T02:31:54.585Z,15.55
2018-05-14T02:34:21.993Z,15.52
2018-05-14T02:36:49.486Z,15.55
2018-05-14T02:39:16.909Z,15.56
2018-05-14T02:41:44.324Z,15.57
2018-05-14T02:44:11.751Z,15.55
2018-05-14T02:46:39.163Z,15.56
2018-05-14T02:49:06.576Z,15.50
2018-05-14T02:51:34.316Z,15.46
2018-05-14T02:54:01.727Z,15.42
2018-05-14T02:56:29.152Z,15.34
2018-05-14T02:58:56.589Z,15.38
2018-05-14T03:01:24.009Z,15.41
2018-05-14T03:03:51.641Z,15.43
2018-05-14T03:06:19.067Z,15.41
2018-05-14T03:08:46.480Z,15.32
2018-05-14T03:11:13.920Z,15.33
2018-05-14T03:13:41.325Z,15.31
2018-05-14T03:16:08.746Z,15.31
2018-05-14T03:18:36.161Z,15.27
2018-05-14T03:21:03.583Z,15.19
2018-05-14T03:23:30.980Z,15.17
2018-05-14T03:25:58.407Z,15.08
2018-05-14T03:28:25.823Z,15.12
2018-05-14T03:30:53.242Z,15.14
2018-05-14T03:33:20.643Z,15.17
2018-05-14T03:35:48.077Z,15.10
2018-05-14T03:38:15.495Z,15.12
2018-05-14T03:40:42.919Z,15.14
2018-05-14T03:43:10.344Z,15.16
2018-05-14T03:45:37.825Z,15.20
2018-05-14T03:48:05.241Z,15.18
2018-05-14T03:50:32.653Z,15.12
2018-05-14T03:53:00.060Z,15.14
2018-05-14T03:55:27.628Z,15.17
2018-05-14T03:57:55.043Z,15.19
2018-05-14T04:00:34.232Z,15.16
2018-05-14T04:03:13.354Z,15.20
2018-05-14T04:05:52.552Z,15.23
2018-05-14T04:08:20.037Z,15.23
2018-05-14T04:10:47.381Z,15.23
2018-05-14T04:13:14.788Z,15.20
2018-05-14T04:15:42.193Z,15.22
2018-05-14T04:18:09.625Z,15.14
2018-05-14T04:20:37.032Z,15.16
2018-05-14T04:23:04.448Z,15.18
2018-05-14T04:25:31.879Z,15.19
2018-05-14T04:27:59.284Z,15.20
2018-05-14T04:30:26.704Z,15.17
2018-05-14T04:32:54.121Z,15.19
2018-05-14T04:35:21.549Z,15.23
2018-05-14T04:37:48.963Z,15.24
2018-05-14T04:40:16.383Z,15.18
2018-05-14T04:42:43.792Z,15.24
2018-05-14T04:45:12.723Z,15.32
2018-05-14T04:47:40.147Z,15.35
2018-05-14T04:50:07.556Z,15.38
2018-05-14T04:52:34.979Z,15.45
2018-05-14T04:55:02.403Z,15.46
2018-05-14T04:57:29.815Z,15.61
2018-05-14T04:59:57.240Z,15.77
2018-05-14T05:02:24.643Z,16.02
2018-05-14T05:04:52.082Z,16.13
2018-05-14T05:07:19.510Z,16.20
2018-05-14T05:09:46.910Z,16.22
2018-05-14T05:12:14.367Z,16.27
2018-05-14T05:14:41.768Z,16.48
2018-05-14T05:17:09.284Z,16.89
2018-05-14T05:19:36.601Z,17.37
2018-05-14T05:22:04.019Z,18.01
2018-05-14T05:24:31.875Z,18.66
2018-05-14T05:26:59.276Z,19.27
2018-05-14T05:29:26.831Z,19.85
2018-05-14T05:31:54.244Z,20.32
2018-05-14T05:34:21.648Z,20.74
2018-05-14T05:36:49.064Z,21.14
2018-05-14T05:39:16.627Z,21.60
2018-05-14T05:41:44.034Z,21.95
2018-05-14T05:44:11.444Z,22.46
2018-05-14T05:46:38.892Z,23.09
2018-05-14T05:49:06.315Z,23.54
2018-05-14T05:51:33.733Z,23.69
2018-05-14T05:54:01.156Z,23.83
2018-05-14T05:56:28.584Z,24.32
2018-05-14T05:58:56.056Z,24.39
2018-05-14T06:01:23.499Z,23.87
2018-05-14T06:03:50.904Z,24.33
2018-05-14T06:06:18.328Z,24.73
2018-05-14T06:08:45.892Z,25.05
2018-05-14T06:11:13.320Z,25.00
2018-05-14T06:13:40.736Z,25.01
2018-05-14T06:16:08.163Z,24.59
2018-05-14T06:18:35.600Z,24.44
2018-05-14T06:21:03.016Z,24.83
2018-05-14T06:23:30.432Z,25.00
2018-05-14T06:25:57.869Z,24.76
2018-05-14T06:28:25.300Z,24.66
2018-05-14T06:30:52.730Z,24.84
2018-05-14T06:33:20.141Z,24.71
2018-05-14T06:35:47.584Z,24.83
2018-05-14T06:38:15.144Z,25.00
2018-05-14T06:40:42.564Z,25.43
2018-05-14T06:43:09.980Z,25.77
2018-05-14T06:45:37.616Z,26.03
2018-05-14T06:48:04.877Z,26.15
2018-05-14T06:50:32.303Z,25.93
2018-05-14T06:52:59.744Z,25.91
2018-05-14T06:55:27.172Z,26.00
2018-05-14T06:57:54.592Z,26.02
2018-05-14T07:00:22.018Z,26.31
2018-05-14T07:02:49.424Z,26.61
2018-05-14T07:05:17.159Z,26.67
2018-05-14T07:07:44.574Z,26.88
2018-05-14T07:10:11.981Z,26.77
2018-05-14T07:12:39.399Z,26.75
2018-05-14T07:15:06.808Z,26.47
2018-05-14T07:17:34.242Z,26.64
2018-05-14T07:20:01.640Z,26.30
2018-05-14T07:22:29.080Z,26.44
2018-05-14T07:24:56.491Z,26.67
2018-05-14T07:27:24.224Z,26.91
2018-05-14T07:29:51.641Z,27.29
2018-05-14T07:32:19.054Z,27.22
2018-05-14T07:34:46.483Z,27.57
2018-05-14T07:37:13.903Z,27.59
2018-05-14T07:39:41.372Z,27.26
2018-05-14T07:42:08.788Z,27.67
2018-05-14T07:44:36.197Z,27.99
2018-05-14T07:47:03.604Z,28.15
2018-05-14T07:49:31.549Z,28.25
2018-05-14T07:51:58.947Z,28.17
2018-05-14T07:54:26.416Z,28.22
2018-05-14T07:56:53.989Z,28.31
2018-05-14T07:59:21.401Z,28.23
2018-05-14T08:01:48.808Z,28.19
2018-05-14T08:04:16.228Z,28.21
2018-05-14T08:06:43.651Z,27.88
2018-05-14T08:09:11.079Z,27.41
2018-05-14T08:11:38.553Z,27.22
2018-05-14T08:14:05.908Z,27.24
2018-05-14T08:16:33.895Z,27.09
2018-05-14T08:19:01.312Z,27.36
2018-05-14T08:21:28.871Z,27.52
2018-05-14T08:23:56.285Z,27.43
2018-05-14T08:26:23.688Z,27.40
2018-05-14T08:28:51.111Z,27.24
2018-05-14T08:31:18.554Z,27.13
2018-05-14T08:33:45.960Z,26.88
2018-05-14T08:36:13.387Z,27.14
2018-05-14T08:38:40.802Z,27.20
2018-05-14T08:41:08.229Z,27.07
2018-05-14T08:43:35.651Z,26.84
2018-05-14T08:46:03.064Z,26.66
2018-05-14T08:48:30.493Z,26.36
2018-05-14T08:50:57.900Z,26.42
2018-05-14T08:53:25.455Z,26.17
2018-05-14T08:55:52.735Z,26.06
2018-05-14T08:58:20.143Z,26.20
2018-05-14T09:00:47.615Z,26.14
2018-05-14T09:03:14.989Z,26.27
2018-05-14T09:05:42.411Z,26.41
2018-05-14T09:08:09.840Z,26.61
2018-05-14T09:10:37.250Z,26.84
2018-05-14T09:13:04.683Z,27.03
2018-05-14T09:15:32.093Z,27.21
2018-05-14T09:17:59.505Z,27.29
2018-05-14T09:20:27.228Z,27.53
2018-05-14T09:22:54.637Z,27.72
2018-05-14T09:25:22.045Z,27.89
2018-05-14T09:27:49.490Z,27.97
2018-05-14T09:30:16.904Z,28.14
2018-05-14T09:32:44.332Z,28.29
2018-05-14T09:35:11.840Z,28.34
2018-05-14T09:37:39.247Z,28.52
2018-05-14T09:40:06.651Z,28.82
2018-05-14T09:42:34.371Z,28.95
2018-05-14T09:45:01.781Z,29.23
2018-05-14T09:47:29.196Z,29.51
2018-05-14T09:49:56.865Z,29.36
2018-05-14T09:52:24.280Z,29.22
2018-05-14T09:54:51.700Z,29.01
2018-05-14T09:57:19.837Z,28.58
2018-05-14T09:59:47.267Z,28.10
2018-05-14T10:02:14.769Z,27.95
2018-05-14T10:04:42.198Z,27.57
2018-05-14T10:07:09.618Z,27.31
2018-05-14T10:09:37.021Z,26.83
2018-05-14T10:12:04.431Z,26.86
2018-05-14T10:14:31.868Z,26.77
2018-05-14T10:16:59.456Z,26.72
2018-05-14T10:19:26.935Z,26.73
2018-05-14T10:21:54.424Z,26.69
2018-05-14T10:24:21.865Z,26.67
2018-05-14T10:26:49.343Z,26.63
2018-05-14T10:29:16.772Z,26.57
2018-05-14T10:31:44.229Z,26.61
2018-05-14T10:34:11.625Z,26.54
2018-05-14T10:36:39.093Z,26.55
2018-05-14T10:39:07.339Z,26.58
2018-05-14T10:41:34.805Z,26.47
2018-05-14T10:44:02.216Z,26.49
2018-05-14T10:46:29.617Z,26.42
2018-05-14T10:48:57.044Z,26.57
2018-05-14T10:51:24.451Z,26.58
2018-05-14T10:53:51.880Z,26.66
2018-05-14T10:56:19.275Z,26.59
2018-05-14T10:58:46.887Z,26.67
2018-05-14T11:01:14.209Z,26.72
2018-05-14T11:03:41.619Z,26.77
2018-05-14T11:06:09.024Z,26.77
2018-05-14T11:08:36.423Z,26.80
2018-05-14T11:11:03.833Z,26.82
2018-05-14T11:13:31.240Z,26.81
2018-05-14T11:15:58.635Z,26.91
2018-05-14T11:18:26.055Z,26.84
2018-05-14T11:20:53.461Z,26.88
2018-05-14T11:23:20.879Z,26.86
2018-05-14T11:25:48.275Z,26.87
2018-05-14T11:28:15.850Z,26.87
2018-05-14T11:30:43.257Z,26.86
2018-05-14T11:33:10.656Z,26.81
2018-05-14T11:35:38.063Z,26.82
2018-05-14T11:38:07.938Z,26.92
2018-05-14T11:40:36.116Z,26.95
2018-05-14T11:43:03.532Z,26.95
2018-05-14T11:45:31.468Z,26.93
2018-05-14T11:47:58.883Z,26.92
2018-05-14T11:50:26.327Z,27.00
2018-05-14T11:52:53.743Z,27.03
2018-05-14T11:55:21.144Z,27.12
2018-05-14T11:57:48.580Z,27.21
2018-05-14T12:00:16.008Z,27.35
2018-05-14T12:02:43.479Z,27.37
2018-05-14T12:05:10.836Z,27.27
2018-05-14T12:07:38.255Z,27.29
2018-05-14T12:10:05.729Z,27.18
2018-05-14T12:12:33.464Z,27.29
2018-05-14T12:15:00.868Z,27.17
2018-05-14T12:17:28.308Z,27.23
2018-05-14T12:19:56.016Z,27.29
2018-05-14T12:22:24.360Z,27.19
2018-05-14T12:24:51.766Z,27.29
2018-05-14T12:27:19.199Z,27.36
2018-05-14T12:29:46.598Z,27.38
2018-05-14T12:32:14.028Z,27.30
2018-05-14T12:34:41.446Z,27.33
2018-05-14T12:37:08.860Z,27.40
2018-05-14T12:39:36.256Z,27.38
2018-05-14T12:42:03.673Z,27.46
2018-05-14T12:44:31.091Z,27.46
2018-05-14T12:46:58.493Z,27.43
2018-05-14T12:49:25.900Z,27.53
2018-05-14T12:51:53.360Z,27.51
2018-05-14T12:54:20.727Z,27.46
2018-05-14T12:56:48.131Z,27.49
2018-05-14T12:59:15.532Z,27.47
2018-05-14T13:01:42.953Z,27.57
2018-05-14T13:04:10.356Z,27.57
2018-05-14T13:06:37.781Z,27.64
2018-05-14T13:09:05.208Z,27.64
2018-05-14T13:11:32.642Z,27.64
2018-05-14T13:14:00.043Z,27.66
2018-05-14T13:16:27.447Z,27.74
2018-05-14T13:18:54.992Z,27.75
2018-05-14T13:21:22.409Z,27.73
2018-05-14T13:23:49.809Z,27.68
2018-05-14T13:26:17.282Z,27.69
2018-05-14T13:28:44.648Z,27.62
2018-05-14T13:31:12.224Z,27.62
2018-05-14T13:33:39.623Z,27.72
2018-05-14T13:36:07.037Z,27.78
2018-05-14T13:38:34.455Z,27.77
2018-05-14T13:41:01.862Z,27.81
2018-05-14T13:43:29.279Z,27.83
2018-05-14T13:45:56.709Z,27.93
2018-05-14T13:48:24.118Z,28.01
2018-05-14T13:50:51.586Z,28.09
2018-05-14T13:53:18.936Z,27.89
2018-05-14T13:55:46.350Z,27.85
2018-05-14T13:58:13.760Z,27.92
2018-05-14T14:00:41.169Z,27.95
2018-05-14T14:03:08.600Z,28.01
2018-05-14T14:05:36.001Z,27.97
2018-05-14T14:08:03.424Z,27.84
2018-05-14T14:10:30.827Z,27.88
2018-05-14T14:12:58.236Z,27.91
2018-05-14T14:15:25.661Z,27.96
2018-05-14T14:17:53.059Z,27.98
2018-05-14T14:20:20.472Z,28.02
2018-05-14T14:22:47.893Z,28.07
2018-05-14T14:25:15.307Z,28.01
2018-05-14T14:27:42.713Z,28.02
2018-05-14T14:30:11.299Z,28.02
2018-05-14T14:32:38.703Z,28.07
2018-05-14T14:35:06.124Z,28.10
2018-05-14T14:37:33.528Z,28.08
2018-05-14T14:40:03.668Z,28.12
2018-05-14T14:42:31.084Z,28.15
2018-05-14T14:44:58.480Z,28.27
2018-05-14T14:47:25.903Z,28.37
2018-05-14T14:49:53.307Z,28.33
2018-05-14T14:52:20.864Z,28.32
2018-05-14T14:54:48.279Z,28.27
2018-05-14T14:57:15.809Z,28.19
2018-05-14T14:59:43.237Z,28.05
2018-05-14T15:05:01.213Z,28.01
2018-05-14T15:07:28.786Z,28.02
2018-05-14T15:09:56.290Z,27.92
2018-05-14T15:12:23.777Z,27.91
2018-05-14T15:14:51.177Z,27.92
2018-05-14T15:17:18.638Z,27.96
2018-05-14T15:19:46.056Z,27.99
2018-05-14T15:22:13.464Z,28.01
2018-05-14T15:24:40.879Z,28.01
2018-05-14T15:27:08.284Z,27.85
2018-05-14T15:29:35.695Z,27.75
2018-05-14T15:32:03.119Z,27.67
2018-05-14T15:34:30.626Z,27.51
2018-05-14T15:36:58.075Z,27.28
2018-05-14T15:39:25.535Z,27.23
2018-05-14T15:41:52.920Z,27.25
2018-05-14T15:44:20.339Z,27.31
2018-05-14T15:46:47.748Z,27.36
2018-05-14T15:49:15.204Z,27.35
2018-05-14T15:51:42.852Z,27.42
2018-05-14T15:54:10.313Z,27.43
2018-05-14T15:56:37.727Z,27.42
2018-05-14T15:59:05.213Z,27.47
2018-05-14T16:01:32.678Z,27.43
2018-05-14T16:04:00.420Z,27.48
2018-05-14T16:06:27.876Z,27.50
2018-05-14T16:08:55.396Z,27.54
2018-05-14T16:11:22.817Z,27.53
2018-05-14T16:13:50.465Z,27.58
2018-05-14T16:16:17.882Z,27.61
2018-05-14T16:18:45.499Z,27.59
2018-05-14T16:21:13.162Z,27.56
2018-05-14T16:23:40.578Z,27.51
2018-05-14T16:26:08.169Z,27.48
2018-05-14T16:28:35.689Z,27.47
2018-05-14T16:31:03.128Z,27.50
2018-05-14T16:33:30.527Z,27.42
2018-05-14T16:35:59.051Z,27.39
2018-05-14T16:38:26.535Z,27.38
2018-05-14T16:40:54.095Z,27.39
2018-05-14T16:43:21.492Z,27.32
2018-05-14T16:45:48.897Z,27.32
2018-05-14T16:48:16.333Z,27.24
2018-05-14T16:50:43.752Z,27.17
2018-05-14T16:53:11.177Z,27.14
2018-05-14T16:55:38.602Z,27.10
2018-05-14T16:58:06.064Z,27.10
2018-05-14T17:00:33.478Z,27.11
2018-05-14T17:03:01.092Z,27.10
2018-05-14T17:05:28.692Z,27.08
2018-05-14T17:07:56.159Z,26.96
2018-05-14T17:10:23.616Z,26.98
2018-05-14T17:12:50.993Z,26.91
2018-05-14T17:15:18.413Z,26.87
2018-05-14T17:17:45.844Z,26.89
2018-05-14T17:20:13.268Z,26.86
2018-05-14T17:22:40.672Z,26.85
2018-05-14T17:25:08.096Z,26.81
2018-05-14T17:27:35.499Z,26.75
2018-05-14T17:30:03.128Z,26.69
2018-05-14T17:32:30.532Z,26.66
2018-05-14T17:34:57.940Z,26.66
2018-05-14T17:37:25.384Z,26.60
2018-05-14T18:22:21.090Z,24.39
2018-05-14T18:24:51.375Z,24.36
2018-05-14T18:27:38.635Z,24.34
2018-05-14T18:30:11.616Z,24.34
2018-05-14T18:32:40.053Z,24.33
2018-05-14T18:35:13.056Z,24.32
2018-05-14T18:37:40.548Z,24.31
2018-05-14T18:40:07.986Z,24.29
2018-05-14T18:42:36.178Z,24.26
2018-05-14T18:45:03.584Z,24.24
2018-05-14T18:47:31.017Z,24.22
2018-05-14T18:49:58.470Z,24.17
2018-05-14T18:52:25.878Z,24.13
2018-05-14T18:54:53.440Z,24.08
2018-05-14T18:57:20.860Z,24.03
2018-05-14T18:59:48.267Z,23.98
2018-05-14T19:02:15.684Z,23.94
2018-05-14T19:04:43.197Z,23.88
2018-05-14T19:07:10.623Z,23.85
2018-05-14T19:09:38.073Z,23.73
2018-05-14T19:12:05.471Z,23.67
2018-05-14T19:14:32.896Z,23.66
2018-05-14T19:17:05.830Z,23.58
2018-05-14T19:19:33.331Z,23.53
2018-05-14T19:22:00.669Z,23.47
2018-05-14T19:24:28.103Z,23.43
2018-05-14T19:26:55.568Z,23.39
2018-05-14T19:29:34.163Z,23.30
2018-05-14T19:32:01.596Z,23.24
2018-05-14T19:34:34.561Z,23.19
2018-05-14T19:37:01.996Z,23.10
2018-05-14T19:39:35.022Z,23.03
2018-05-14T19:42:02.447Z,22.96
2018-05-14T19:44:29.856Z,22.92
2018-05-14T19:46:57.343Z,22.88
2018-05-14T19:49:24.907Z,22.78
2018-05-14T19:51:52.251Z,22.77
2018-05-14T19:54:19.694Z,22.68
2018-05-14T19:56:47.111Z,22.65
2018-05-14T19:59:14.524Z,22.62
2018-05-14T20:01:41.958Z,22.59
2018-05-14T20:04:09.791Z,22.51
2018-05-14T20:06:37.232Z,22.46
2018-05-14T20:09:05.229Z,22.41
2018-05-14T20:11:32.656Z,22.35
2018-05-14T20:14:00.156Z,22.32
2018-05-14T20:19:03.711Z,22.21
2018-05-14T20:21:31.113Z,22.16
2018-05-14T20:23:58.516Z,22.12
2018-05-14T20:26:25.929Z,22.09
2018-05-14T20:28:53.331Z,22.07
2018-05-14T20:31:20.780Z,22.02
2018-05-14T20:33:48.188Z,21.99
2018-05-14T20:36:15.617Z,21.92
2018-05-14T20:38:43.016Z,21.87
2018-05-14T20:41:10.425Z,21.78
2018-05-14T20:43:37.854Z,21.73
2018-05-14T20:46:05.257Z,21.69
2018-05-14T20:48:33.070Z,21.64
2018-05-14T20:51:00.471Z,21.58
2018-05-14T20:53:27.905Z,21.52
2018-05-14T20:55:55.760Z,21.44
2018-05-14T20:58:23.168Z,21.38
2018-05-14T21:00:50.576Z,21.32
2018-05-14T21:03:18.060Z,21.24
2018-05-14T21:05:45.412Z,21.19
2018-05-14T21:08:12.840Z,21.10
2018-05-14T21:10:40.347Z,21.02
2018-05-14T21:13:07.817Z,20.98
2018-05-14T21:15:35.259Z,20.90
2018-05-14T21:18:02.684Z,20.84
2018-05-14T21:20:30.084Z,20.77
2018-05-14T21:22:57.519Z,20.70
2018-05-14T21:25:24.916Z,20.62
2018-05-14T21:27:52.332Z,20.55
2018-05-14T21:30:19.931Z,20.50
2018-05-14T21:32:47.331Z,20.43
2018-05-14T21:35:14.804Z,20.38
2018-05-14T21:37:42.241Z,20.33
2018-05-14T21:40:09.677Z,20.29
2018-05-14T21:42:37.171Z,20.24
2018-05-14T21:45:04.519Z,20.21
2018-05-14T21:47:31.924Z,20.17
2018-05-14T21:49:59.421Z,20.11
2018-05-14T21:52:26.863Z,20.07
2018-05-14T21:54:54.265Z,20.02
2018-05-14T21:57:21.720Z,19.95
2018-05-14T21:59:49.120Z,19.89
2018-05-14T22:02:16.535Z,19.88
2018-05-14T22:04:43.952Z,19.84
2018-05-14T22:07:11.371Z,19.81
2018-05-14T22:09:38.808Z,19.78
2018-05-14T22:12:06.204Z,19.74
2018-05-14T22:14:33.620Z,19.73
2018-05-14T22:17:01.032Z,19.69
2018-05-14T22:19:28.456Z,19.70
2018-05-14T22:21:55.855Z,19.68
2018-05-14T22:24:23.286Z,19.68
2018-05-14T22:26:50.680Z,19.66
2018-05-14T22:29:18.107Z,19.63
2018-05-14T22:31:45.530Z,19.63
2018-05-14T22:34:12.933Z,19.61
2018-05-14T22:36:40.360Z,19.58
2018-05-14T22:39:07.806Z,19.56
2018-05-14T22:41:35.201Z,19.49
2018-05-14T22:44:03.179Z,19.45
2018-05-14T22:46:30.608Z,19.40
2018-05-14T22:48:58.042Z,19.36
2018-05-14T22:51:25.513Z,19.31
2018-05-14T22:53:52.921Z,19.25
2018-05-14T22:56:20.658Z,19.18
2018-05-14T22:58:48.073Z,19.12
2018-05-14T23:01:15.484Z,19.07
2018-05-14T23:03:42.912Z,19.02
2018-05-14T23:11:51.798Z,18.83
2018-05-14T23:17:09.485Z,18.67
2018-05-14T23:19:36.886Z,18.60
2018-05-14T23:22:04.289Z,18.53
2018-05-14T23:24:31.710Z,18.49
2018-05-14T23:26:59.107Z,18.44
2018-05-14T23:29:26.857Z,18.39
2018-05-14T23:31:54.265Z,18.35
2018-05-14T23:34:21.676Z,18.29
2018-05-14T23:36:49.263Z,18.24
2018-05-14T23:39:16.684Z,18.20
2018-05-14T23:41:44.088Z,18.15
2018-05-14T23:44:11.503Z,18.08
2018-05-14T23:46:38.915Z,18.03
2018-05-14T23:49:06.332Z,17.98
2018-05-14T23:51:33.744Z,17.92
2018-05-14T23:54:01.169Z,17.84
2018-05-14T23:56:28.588Z,17.76
2018-05-14T23:58:55.997Z,17.68
